KRNT - Renton, Washington, USA
Distance from station: W 21mi, 33km
Updated: Sat, 02-Mar-2024 5:53am PST

 Wind from SE
Wind: SE 5 mph , 7 km/h
Temperature: 39°F , 4°C
Wind Chill: 35°F , 2°C
Dew Point: 34°F , 1°C
Humidity: 81%
Barometer: 29.32 inHg , 992.9 hPa
Visibility: 10 miles , 16 km
Cloud details: 3600 ft
2024/03/02 13:53 KRNT 021353Z AUTO 13004KT 10SM BKN036 04/01 A2932 RMK AO2 RAB17E26 SLP935 P0000 T00390011
KBFI - Seattle/Boeing, Washington, USA
Distance from station: W 25mi, 41km
Updated: Sat, 02-Mar-2024 5:53am PST

 Wind from SE
Wind: SE 7 mph , 11 km/h
Temperature: 36°F , 2°C
Wind Chill: 30°F , -1°C
Dew Point: 34°F , 1°C
Humidity: 93%
Barometer: 29.32 inHg , 992.9 hPa
Visibility: 10 miles , 16 km
Cloud details: 2800 ft
10000 ft
2024/03/02 13:53 KBFI 021353Z 14006KT 10SM BKN028 BKN100 02/01 A2932 RMK AO2 SLP928 T00220006
 
KSEA - Seattle/Metro, Washington, USA
Distance from station: W 25mi, 41km
Updated: Sat, 02-Mar-2024 6:28am PST

 Wind from S
Wind: S 12 mph , 19 km/h
Temperature: 37°F , 3°C
Wind Chill: 29°F , -2°C
Dew Point: 32°F , 0°C
Humidity: 81%
Barometer: 29.32 inHg , 992.9 hPa
Visibility: 10 miles , 16 km
Cloud details: 2300 ft
3100 ft
2024/03/02 14:28 KSEA 021428Z 19010KT 10SM BKN023 OVC031 03/00 A2932 RMK AO2 T00330000
KSMP - Stampede Pass, Washington, USA
Distance from station: SE 26mi, 41km
Updated: Sat, 02-Mar-2024 6:33am PST
Light snow, Mist, Overcast
Light snow, Mist, Overcast
 Wind from calm
Wind: Calm
Temperature: 25°F , -4°C
Dew Point: 21°F , -6°C
Humidity: 86%
Barometer: 29.20 inHg , 988.8 hPa
Summary: Light snow, Mist
Visibility: 3/4 mile , 1.2 km
Cloud details: 1300 ft
2024/03/02 14:33 KSMP 021433Z AUTO 00000KT 3/4SM -SN BR VV013 M04/M06 A2920 RMK AO2 P0003 T10441056
 
KPLU - Puyallup/Thun, Washington, USA
Distance from station: SW 36mi, 59km
Updated: Sat, 02-Mar-2024 6:15am PST

 Wind from SSW
Wind: SSW 6 mph , 9 km/h
Temperature: 39°F , 4°C
Wind Chill: 35°F , 2°C
Dew Point: 34°F , 1°C
Humidity: 81%
Barometer: 29.33 inHg , 993.2 hPa
Visibility: 10 miles , 16 km
2024/03/02 14:15 KPLU 021415Z AUTO 20005KT 10SM 04/01 A2933 RMK AO2
KPAE - Everett, Washington, USA
Distance from station: NW 37mi, 60km
Updated: Sat, 02-Mar-2024 5:53am PST

 Wind from S
Wind: S 12 mph , 19 km/h, Gust: 23 mph , 37 km/h
Temperature: 39°F , 4°C
Wind Chill: 32°F , 0°C
Dew Point: 32°F , 0°C
Humidity: 75%
Barometer: 29.29 inHg , 991.9 hPa
Visibility: 10 miles , 16 km
Cloud details: 1800 ft
2024/03/02 13:53 KPAE 021353Z AUTO 17010G20KT 10SM OVC018 04/00 A2929 RMK AO2 RAB22E31 SLP923 P0000 T00440000
 
KTIW - Tacoma, Washington, USA
Distance from station: WSW 41mi, 66km
Updated: Sat, 02-Mar-2024 5:53am PST
Light rain, Overcast
Light rain, Overcast
 Wind from SSW
Wind: SSW 15 mph , 24 km/h, Gust: 25 mph , 41 km/h
Temperature: 39°F , 4°C
Wind Chill: 31°F , -1°C
Dew Point: 34°F , 1°C
Humidity: 81%
Barometer: 29.32 inHg , 992.9 hPa
Visibility: 10 miles , 16 km
Cloud details: 1900 ft
2400 ft
2024/03/02 13:53 KTIW 021353Z 20013G22KT 10SM -RA BKN019 OVC024 04/01 A2932 RMK AO2 RAB51 SLP931 P0000 T00390011
KTCM - Tacoma/Mc Chord, Washington, USA
Distance from station: SW 42mi, 67km
Updated: Sat, 02-Mar-2024 6:24am PST
Light rain, Overcast
Light rain, Overcast
 Wind from SW
Wind: SW 10 mph , 17 km/h
Temperature: 37°F , 3°C
Wind Chill: 30°F , -1°C
Dew Point: 34°F , 1°C
Humidity: 87%
Barometer: 29.33 inHg , 993.2 hPa
Visibility: 10 miles , 16 km
Cloud details: 1000 ft
1800 ft
2300 ft
5500 ft
7000 ft
2024/03/02 14:24 KTCM 021424Z AUTO 23009KT 10SM -RA FEW010 BKN018 BKN023 BKN055 OVC070 03/01 A2933 RMK AO2 RAB24 CIG 018V023 BKN018 V FEW SLP938 $
 
KPWT - Bremerton Ntnl, Washington, USA
Distance from station: W 45mi, 73km
Updated: Sat, 02-Mar-2024 6:29am PST

 Wind from SSW
Wind: SSW 10 mph , 17 km/h
Temperature: 34°F , 1°C
Wind Chill: 26°F , -3°C
Dew Point: 34°F , 1°C
Humidity: 100%
Barometer: 29.32 inHg , 992.9 hPa
Visibility: 10 miles , 16 km
Cloud details: 300 ft
2024/03/02 14:29 KPWT 021429Z AUTO 20009KT 10SM BKN003 01/01 A2932 RMK AO2 RAB06E28SNE06 P0000 FZRANO
KGRF - Fort Lewis/Gray, Washington, USA
Distance from station: SW 48mi, 77km
Updated: Sat, 02-Mar-2024 6:21am PST
Light rain, Overcast
Light rain, Overcast
 Wind from SW
Wind: SW 9 mph , 15 km/h
Temperature: 39°F , 4°C
Wind Chill: 33°F , 1°C
Dew Point: 34°F , 1°C
Humidity: 81%
Barometer: 29.32 inHg , 992.9 hPa
Visibility: 10 miles , 16 km
Cloud details: 1000 ft
1600 ft
2800 ft
3400 ft
2024/03/02 14:21 KGRF 021421Z 22008KT 10SM -RA BKN010 BKN016 BKN028 OVC034 04/01 A2932 RMK AO2A RAB11 CIG 010V029 BKN010 V FEW SLP934 $
 
KAWO - Arlington Muni, Washington, USA
Distance from station: NNW 50mi, 80km
Updated: Sat, 02-Mar-2024 5:56am PST

 Wind from ESE
Wind: ESE 13 mph , 20 km/h
Temperature: 37°F , 3°C
Wind Chill: 29°F , -2°C
Dew Point: 34°F , 1°C
Humidity: 87%
Barometer: 29.31 inHg , 992.5 hPa
Visibility: 10 miles , 16 km
Cloud details: 2700 ft
2024/03/02 13:56 KAWO 021356Z AUTO 12011KT 10SM OVC027 03/01 A2931 RMK AO2 SLP930 T00330011